createdAt,value
2019-02-28T00:02:13.082Z,6.30
2019-02-28T00:04:43.784Z,7.00
2019-02-28T00:07:17.600Z,7.47
2019-02-28T00:09:46.908Z,6.00
2019-02-28T00:12:17.600Z,7.73
2019-02-28T00:14:48.269Z,7.40
2019-02-28T00:17:18.941Z,7.00
2019-02-28T00:19:49.691Z,8.30
2019-02-28T00:22:20.356Z,8.93
2019-02-28T00:24:51.034Z,7.37
2019-02-28T00:27:22.179Z,6.90
2019-02-28T00:29:52.920Z,8.13
2019-02-28T00:32:24.753Z,8.43
2019-02-28T00:34:56.176Z,7.77
2019-02-28T00:37:26.920Z,5.90
2019-02-28T00:39:57.601Z,6.60
2019-02-28T00:42:28.337Z,6.30
2019-02-28T00:45:02.353Z,7.73
2019-02-28T00:47:31.466Z,6.60
2019-02-28T00:50:02.121Z,7.10
2019-02-28T00:52:35.484Z,6.37
2019-02-28T00:55:05.491Z,6.03
2019-02-28T00:57:36.161Z,5.97
2019-02-28T01:00:07.332Z,7.27
2019-02-28T01:02:38.021Z,7.10
2019-02-28T01:05:09.027Z,6.50
2019-02-28T01:07:39.743Z,6.10
2019-02-28T01:10:10.832Z,7.73
2019-02-28T01:12:41.513Z,7.00
2019-02-28T01:15:13.392Z,6.27
2019-02-28T01:17:44.061Z,6.63
2019-02-28T01:20:16.497Z,6.00
2019-02-28T01:22:47.405Z,7.00
2019-02-28T01:25:18.221Z,7.13
2019-02-28T01:27:48.980Z,5.73
2019-02-28T01:30:19.656Z,7.07
2019-02-28T01:32:51.129Z,5.70
2019-02-28T01:35:21.283Z,5.67
2019-02-28T01:37:52.409Z,6.00
2019-02-28T01:40:23.676Z,6.60
2019-02-28T01:42:55.092Z,6.83
2019-02-28T01:45:25.873Z,6.50
2019-02-28T01:47:56.541Z,6.50
2019-02-28T01:50:29.678Z,5.33
2019-02-28T01:52:59.573Z,6.93
2019-02-28T01:55:30.601Z,6.37
2019-02-28T01:58:01.270Z,6.47
2019-02-28T03:00:23.087Z,5.30
2019-02-28T03:02:53.756Z,5.33
2019-02-28T03:05:24.441Z,5.93
2019-02-28T03:07:59.519Z,6.00
2019-02-28T03:10:27.584Z,6.13
2019-02-28T03:12:58.343Z,5.50
2019-02-28T03:15:29.090Z,4.93
2019-02-28T03:17:59.768Z,5.20
2019-02-28T03:20:31.430Z,5.70
2019-02-28T03:23:03.304Z,5.63
2019-02-28T03:25:34.160Z,5.07
2019-02-28T03:28:04.853Z,5.70
2019-02-28T03:30:35.611Z,5.70
2019-02-28T03:33:07.179Z,5.63
2019-02-28T03:35:43.054Z,5.03
2019-02-28T03:38:12.501Z,6.20
2019-02-28T03:40:42.783Z,6.37
2019-02-28T03:43:13.469Z,5.10
2019-02-28T03:45:44.153Z,7.10
2019-02-28T03:48:15.197Z,5.03
2019-02-28T03:50:45.954Z,5.03
2019-02-28T03:53:19.891Z,5.70
2019-02-28T03:55:49.442Z,5.53
2019-02-28T03:58:20.118Z,5.07
2019-02-28T04:00:50.810Z,5.13
2019-02-28T04:03:21.546Z,5.87
2019-02-28T04:05:53.389Z,4.57
2019-02-28T04:08:29.385Z,5.30
2019-02-28T04:10:56.479Z,5.50
2019-02-28T04:13:27.256Z,5.00
2019-02-28T04:16:08.596Z,4.63
2019-02-28T04:18:30.786Z,5.70
2019-02-28T04:21:01.561Z,4.77
2019-02-28T04:23:35.971Z,5.60
2019-02-28T04:26:04.638Z,5.13
2019-02-28T04:28:36.292Z,5.50
2019-02-28T04:31:06.989Z,5.73
2019-02-28T04:33:39.188Z,5.97
2019-02-28T04:36:10.016Z,6.33
2019-02-28T04:38:40.701Z,7.57
2019-02-28T04:41:11.376Z,8.23
2019-02-28T04:43:44.428Z,7.87
2019-02-28T04:46:14.513Z,8.33
2019-02-28T04:48:48.486Z,7.17
2019-02-28T04:51:18.725Z,7.30
2019-02-28T04:53:52.665Z,7.47
2019-02-28T04:56:21.795Z,7.17
2019-02-28T04:58:52.473Z,7.63
2019-02-28T05:01:23.169Z,7.27
2019-02-28T05:03:53.832Z,7.00
2019-02-28T05:06:24.516Z,6.77
2019-02-28T05:08:55.197Z,6.63
2019-02-28T05:11:27.465Z,6.60
2019-02-28T05:13:58.264Z,8.17
2019-02-28T05:16:28.953Z,6.33
2019-02-28T05:19:01.585Z,5.73
2019-02-28T05:21:32.100Z,7.07
2019-02-28T05:24:03.124Z,6.57
2019-02-28T05:26:33.793Z,6.93
2019-02-28T05:29:04.487Z,7.03
2019-02-28T05:31:35.164Z,5.97
2019-02-28T05:34:05.840Z,6.87
2019-02-28T05:36:38.034Z,8.40
2019-02-28T05:39:08.984Z,7.87
2019-02-28T05:41:39.676Z,7.33
2019-02-28T05:44:10.450Z,6.90
2019-02-28T05:46:41.129Z,8.07
2019-02-28T05:49:11.805Z,8.03
2019-02-28T05:51:42.497Z,7.57
2019-02-28T05:54:16.238Z,8.77
2019-02-28T05:56:45.991Z,7.97
2019-02-28T05:59:16.672Z,9.57
2019-02-28T06:01:47.771Z,6.63
2019-02-28T06:04:18.607Z,9.60
2019-02-28T06:06:51.396Z,9.87
2019-02-28T06:09:21.668Z,8.27
2019-02-28T06:11:52.353Z,7.87
2019-02-28T06:14:26.655Z,7.30
2019-02-28T06:16:55.411Z,9.17
2019-02-28T06:19:27.405Z,10.10
2019-02-28T06:21:59.463Z,9.57
2019-02-28T06:24:30.764Z,8.87
2019-02-28T06:27:03.741Z,6.90
2019-02-28T06:29:36.802Z,6.83
2019-02-28T06:32:07.181Z,6.80
2019-02-28T06:34:39.426Z,7.23
2019-02-28T06:37:10.236Z,6.60
2019-02-28T06:39:41.014Z,7.10
2019-02-28T06:42:12.520Z,7.80
2019-02-28T06:44:43.345Z,8.70
2019-02-28T06:47:14.206Z,8.50
2019-02-28T06:49:45.580Z,8.40
2019-02-28T06:52:16.269Z,7.77
2019-02-28T06:54:46.946Z,7.30
2019-02-28T06:57:17.621Z,8.27
2019-02-28T06:59:48.300Z,6.67
2019-02-28T07:02:18.972Z,7.13
2019-02-28T07:04:50.572Z,8.33
2019-02-28T07:07:21.321Z,16.03
2019-02-28T07:09:52.153Z,12.57
2019-02-28T07:12:23.160Z,11.07
2019-02-28T07:14:53.961Z,9.93
2019-02-28T07:17:24.650Z,9.97
2019-02-28T07:19:55.370Z,7.70
2019-02-28T07:22:26.128Z,7.07
2019-02-28T07:24:56.877Z,10.60
2019-02-28T07:27:29.748Z,9.00
2019-02-28T07:30:00.790Z,7.33
2019-02-28T07:32:34.277Z,11.63
2019-02-28T07:35:03.284Z,9.83
2019-02-28T07:37:33.805Z,8.17
2019-02-28T07:40:04.826Z,11.83
2019-02-28T07:42:37.569Z,12.10
2019-02-28T07:45:09.541Z,13.03
2019-02-28T07:47:41.001Z,11.53
2019-02-28T07:50:11.712Z,10.50
2019-02-28T07:52:42.050Z,11.43
2019-02-28T07:55:12.908Z,13.93
2019-02-28T07:57:43.720Z,10.27
2019-02-28T08:00:18.157Z,11.77
2019-02-28T08:02:49.225Z,11.77
2019-02-28T08:05:20.006Z,13.03
2019-02-28T08:07:52.505Z,13.37
2019-02-28T08:10:23.434Z,16.47
2019-02-28T08:12:54.372Z,14.77
2019-02-28T08:15:25.165Z,13.20
2019-02-28T08:17:57.601Z,12.70
2019-02-28T08:20:30.738Z,12.67
2019-02-28T08:23:00.884Z,12.90
2019-02-28T08:25:30.977Z,13.17
2019-02-28T08:28:01.601Z,13.60
2019-02-28T08:30:32.513Z,14.73
2019-02-28T08:33:03.214Z,14.43
2019-02-28T08:35:35.685Z,14.00
2019-02-28T08:38:06.945Z,12.40
2019-02-28T08:40:37.735Z,12.67
2019-02-28T08:43:10.569Z,10.37
2019-02-28T08:45:41.083Z,11.90
2019-02-28T08:48:12.762Z,11.73
2019-02-28T08:50:43.520Z,12.33
2019-02-28T08:53:15.381Z,11.70
2019-02-28T08:55:46.574Z,11.27
2019-02-28T08:58:17.271Z,14.20
2019-02-28T09:00:48.028Z,13.43
2019-02-28T09:03:18.707Z,16.80
2019-02-28T09:05:49.446Z,13.10
2019-02-28T09:08:22.458Z,15.53
2019-02-28T09:10:53.297Z,14.80
2019-02-28T09:13:25.098Z,16.07
2019-02-28T09:15:55.958Z,14.00
2019-02-28T09:18:26.645Z,14.00
2019-02-28T09:20:57.362Z,17.17
2019-02-28T09:23:28.613Z,15.63
2019-02-28T09:25:59.309Z,14.83
2019-02-28T09:28:29.990Z,17.70
2019-02-28T09:31:01.444Z,17.47
2019-02-28T09:33:33.073Z,15.63
2019-02-28T09:36:03.765Z,16.53
2019-02-28T09:38:34.446Z,17.30
2019-02-28T09:41:05.480Z,15.67
2019-02-28T09:43:36.189Z,17.40
2019-02-28T09:46:08.956Z,16.97
2019-02-28T09:48:39.273Z,14.63
2019-02-28T09:51:11.013Z,17.77
2019-02-28T09:53:41.714Z,15.13
2019-02-28T09:56:12.397Z,15.93
2019-02-28T09:58:43.089Z,16.80
2019-02-28T10:01:13.824Z,16.83
2019-02-28T10:03:44.797Z,16.60
2019-02-28T10:06:16.379Z,16.77
2019-02-28T10:08:47.842Z,16.53
2019-02-28T10:11:18.544Z,17.53
2019-02-28T10:13:49.471Z,17.63
2019-02-28T10:16:20.991Z,16.13
2019-02-28T10:18:51.501Z,16.23
2019-02-28T10:21:22.235Z,16.10
2019-02-28T10:23:53.378Z,18.13
2019-02-28T10:26:25.315Z,17.13
2019-02-28T10:28:56.111Z,16.30
2019-02-28T10:31:36.212Z,15.70
2019-02-28T10:34:00.224Z,16.57
2019-02-28T10:36:30.921Z,17.73
2019-02-28T10:39:02.776Z,17.60
2019-02-28T10:41:35.141Z,18.57
2019-02-28T10:44:05.900Z,18.60
2019-02-28T10:46:36.584Z,17.60
2019-02-28T10:49:07.291Z,19.70
2019-02-28T10:51:38.082Z,18.03
2019-02-28T10:54:11.271Z,18.73
2019-02-28T10:56:41.265Z,19.97
2019-02-28T10:59:11.964Z,20.10
2019-02-28T11:01:42.724Z,20.87
2019-02-28T11:04:13.448Z,21.10
2019-02-28T11:06:44.234Z,21.43
2019-02-28T11:09:21.718Z,20.20
2019-02-28T11:11:52.436Z,21.77
2019-02-28T11:14:23.139Z,20.90
2019-02-28T11:16:58.875Z,21.90
2019-02-28T11:19:26.214Z,20.30
2019-02-28T11:21:56.949Z,20.33
2019-02-28T11:24:27.717Z,21.27
2019-02-28T11:26:58.480Z,21.83
2019-02-28T11:29:29.200Z,22.67
2019-02-28T11:32:00.040Z,21.37
2019-02-28T11:37:08.913Z,21.73
2019-02-28T11:39:39.649Z,20.30
2019-02-28T11:42:10.355Z,20.83
2019-02-28T11:44:43.470Z,21.40
2019-02-28T11:47:13.768Z,20.37
2019-02-28T11:49:45.540Z,22.57
2019-02-28T11:52:16.236Z,19.47
2019-02-28T11:54:47.207Z,19.37
2019-02-28T11:57:17.909Z,19.40
2019-02-28T11:59:48.599Z,19.43
2019-02-28T12:02:20.262Z,20.80
2019-02-28T12:04:51.670Z,20.20
2019-02-28T12:07:22.368Z,21.50
2019-02-28T12:09:54.736Z,21.90
2019-02-28T12:12:25.464Z,19.30
2019-02-28T12:14:56.157Z,19.70
2019-02-28T12:17:28.583Z,20.90
2019-02-28T12:19:59.300Z,23.43
2019-02-28T12:22:30.001Z,22.70
2019-02-28T12:25:00.797Z,20.93
2019-02-28T12:27:32.605Z,21.73
2019-02-28T12:30:03.320Z,21.20
2019-02-28T12:32:34.280Z,22.70
2019-02-28T12:35:05.014Z,23.30
2019-02-28T12:37:42.348Z,23.07
2019-02-28T12:40:15.332Z,24.00
2019-02-28T12:42:46.090Z,24.90
2019-02-28T12:45:24.424Z,23.73
2019-02-28T12:47:55.810Z,24.40
2019-02-28T12:50:29.411Z,25.80
2019-02-28T12:52:59.262Z,26.60
2019-02-28T12:55:29.973Z,24.37
2019-02-28T12:58:00.761Z,25.70
2019-02-28T13:00:33.954Z,25.10
2019-02-28T13:03:04.653Z,25.70
2019-02-28T13:05:35.334Z,26.23
2019-02-28T13:08:06.982Z,21.80
2019-02-28T13:10:37.913Z,23.70
2019-02-28T13:13:08.678Z,23.13
2019-02-28T13:15:40.459Z,25.23
2019-02-28T13:18:11.239Z,21.60
2019-02-28T13:20:42.219Z,21.17
2019-02-28T13:23:12.913Z,21.03
2019-02-28T13:25:43.598Z,21.53
2019-02-28T13:28:17.873Z,21.33
2019-02-28T13:30:50.334Z,22.60
2019-02-28T13:33:19.159Z,20.83
2019-02-28T13:35:49.861Z,21.63
2019-02-28T13:38:20.625Z,21.53
2019-02-28T13:40:51.301Z,19.40
2019-02-28T13:43:22.746Z,20.93
2019-02-28T13:45:55.940Z,21.07
2019-02-28T13:48:30.148Z,20.87
2019-02-28T13:51:02.522Z,21.93
2019-02-28T13:53:32.192Z,21.77
2019-02-28T13:56:04.927Z,23.50
2019-02-28T13:58:35.423Z,22.27
2019-02-28T14:01:06.304Z,23.33
2019-02-28T14:03:37.253Z,22.37
2019-02-28T14:06:07.967Z,21.70
2019-02-28T14:08:42.061Z,22.23
2019-02-28T14:11:12.758Z,22.37
2019-02-28T14:13:43.453Z,22.00
2019-02-28T14:16:14.129Z,21.60
2019-02-28T14:18:45.354Z,21.10
2019-02-28T14:21:16.881Z,20.60
2019-02-28T14:23:47.693Z,22.50
2019-02-28T14:26:18.387Z,22.63
2019-02-28T14:28:49.082Z,22.30
2019-02-28T14:31:19.763Z,21.70
2019-02-28T14:33:51.417Z,19.20
2019-02-28T14:36:22.897Z,20.27
2019-02-28T14:38:54.053Z,20.97
2019-02-28T14:41:27.883Z,20.03
2019-02-28T14:43:57.149Z,20.33
2019-02-28T14:46:27.841Z,18.73
2019-02-28T14:48:58.551Z,19.50
2019-02-28T14:51:29.430Z,20.13
2019-02-28T14:54:01.300Z,19.77
2019-02-28T14:56:32.049Z,19.50
2019-02-28T14:59:03.113Z,19.10
2019-02-28T15:01:33.801Z,19.13
2019-02-28T15:04:07.751Z,20.27
2019-02-28T15:06:37.001Z,19.63
2019-02-28T15:09:15.796Z,19.97
2019-02-28T15:11:48.094Z,19.77
2019-02-28T15:14:18.969Z,19.83
2019-02-28T15:16:49.644Z,22.53
2019-02-28T15:19:21.457Z,19.17
2019-02-28T15:21:52.722Z,20.07
2019-02-28T15:24:23.425Z,18.07
2019-02-28T15:26:54.428Z,19.73
2019-02-28T15:29:26.892Z,19.70
2019-02-28T15:31:57.594Z,20.63
2019-02-28T15:34:28.281Z,21.30
2019-02-28T15:36:59.351Z,18.80
2019-02-28T15:39:31.065Z,19.17
2019-02-28T15:42:01.752Z,18.43
2019-02-28T15:44:32.453Z,17.60
2019-02-28T15:47:03.139Z,20.17
2019-02-28T15:49:33.821Z,19.57
2019-02-28T15:52:05.083Z,18.87
2019-02-28T15:54:37.074Z,19.63
2019-02-28T15:57:07.770Z,17.33
2019-02-28T15:59:38.481Z,19.20
2019-02-28T16:02:09.173Z,18.60
2019-02-28T16:04:39.854Z,19.43
2019-02-28T16:07:10.549Z,19.43
2019-02-28T16:09:41.501Z,27.63
2019-02-28T16:12:15.163Z,20.73
2019-02-28T16:14:47.300Z,26.53
2019-02-28T16:17:18.042Z,20.73
2019-02-28T16:19:49.113Z,22.80
2019-02-28T16:22:19.969Z,23.77
2019-02-28T16:24:50.703Z,19.87
2019-02-28T16:27:21.454Z,18.73
2019-02-28T16:29:55.353Z,19.13
2019-02-28T16:32:24.521Z,20.97
2019-02-28T16:34:55.214Z,20.70
2019-02-28T16:37:26.376Z,21.57
2019-02-28T16:39:56.877Z,20.87
2019-02-28T16:42:27.572Z,20.90
2019-02-28T16:44:58.293Z,20.67
2019-02-28T16:47:30.110Z,19.07
2019-02-28T16:50:00.825Z,24.47
2019-02-28T16:52:32.052Z,21.73
2019-02-28T16:55:03.201Z,22.47
2019-02-28T16:57:33.962Z,24.53
2019-02-28T17:00:07.807Z,25.90
2019-02-28T17:02:37.617Z,26.20
2019-02-28T17:05:08.613Z,26.47
2019-02-28T17:07:40.512Z,26.83
2019-02-28T17:10:14.349Z,27.40
2019-02-28T17:12:59.515Z,29.43
2019-02-28T17:15:38.629Z,26.50
2019-02-28T17:18:13.898Z,26.93
2019-02-28T17:20:44.709Z,31.48
2019-02-28T17:23:15.437Z,29.25
2019-02-28T17:25:46.243Z,26.63
2019-02-28T17:28:31.350Z,28.93
2019-02-28T17:31:26.826Z,27.60
2019-02-28T17:33:57.539Z,30.53
2019-02-28T17:36:28.241Z,30.90
2019-02-28T17:38:58.350Z,39.73
2019-02-28T17:41:28.846Z,37.77
2019-02-28T17:44:18.544Z,37.23
2019-02-28T17:46:51.285Z,35.07
2019-02-28T17:50:09.092Z,35.40
2019-02-28T17:52:55.550Z,33.67
2019-02-28T17:56:03.935Z,37.42
2019-02-28T17:59:10.857Z,33.80
2019-02-28T18:02:06.993Z,28.17
2019-02-28T18:05:20.308Z,31.80
2019-02-28T18:08:02.881Z,30.40
2019-02-28T18:10:59.181Z,28.73
2019-02-28T18:13:56.126Z,26.50
2019-02-28T18:17:09.811Z,27.17
2019-02-28T18:20:29.032Z,24.00
2019-02-28T18:23:27.932Z,25.07
2019-02-28T18:26:25.714Z,24.10
2019-02-28T18:29:16.672Z,24.00
2019-02-28T18:31:47.399Z,22.07
2019-02-28T18:34:24.489Z,19.10
2019-02-28T18:36:55.513Z,19.43
2019-02-28T18:39:26.240Z,15.23
2019-02-28T18:41:57.007Z,16.40
2019-02-28T18:44:27.693Z,13.53
2019-02-28T18:46:58.456Z,14.13
2019-02-28T18:49:29.534Z,13.57
2019-02-28T18:52:02.006Z,13.50
2019-02-28T18:54:33.855Z,13.20
2019-02-28T18:57:04.798Z,14.43
2019-02-28T18:59:35.557Z,14.07
2019-02-28T19:02:06.259Z,14.27
2019-02-28T19:04:37.422Z,12.90
2019-02-28T19:07:08.565Z,11.97
2019-02-28T19:09:39.288Z,12.97
2019-02-28T19:12:10.213Z,12.53
2019-02-28T19:14:40.949Z,10.03
2019-02-28T19:17:11.613Z,9.57
2019-02-28T19:19:42.396Z,9.50
2019-02-28T19:22:13.372Z,9.10
2019-02-28T19:24:44.082Z,7.57
2019-02-28T19:27:14.887Z,7.83
2019-02-28T19:29:45.634Z,7.93
2019-02-28T19:32:16.349Z,8.57
2019-02-28T19:34:47.538Z,8.00
2019-02-28T19:37:18.236Z,7.50
2019-02-28T19:39:49.153Z,9.10
2019-02-28T19:42:19.925Z,7.83
2019-02-28T19:44:53.820Z,7.57
2019-02-28T19:47:24.867Z,10.47
2019-02-28T19:49:55.574Z,10.37
2019-02-28T19:52:26.269Z,10.00
2019-02-28T19:54:57.000Z,7.67
2019-02-28T19:57:27.685Z,7.20
2019-02-28T19:59:58.373Z,7.77
2019-02-28T20:02:29.057Z,8.17
2019-02-28T20:04:59.717Z,9.20
2019-02-28T20:07:30.445Z,8.20
2019-02-28T20:10:03.157Z,8.33
2019-02-28T20:12:35.440Z,8.13
2019-02-28T20:15:06.604Z,9.40
2019-02-28T20:17:37.351Z,7.67
2019-02-28T20:20:11.491Z,8.20
2019-02-28T20:22:42.259Z,8.57
2019-02-28T20:25:13.537Z,7.37
2019-02-28T20:27:44.601Z,7.73
2019-02-28T20:30:16.961Z,8.00
2019-02-28T20:32:47.720Z,7.77
2019-02-28T20:35:26.172Z,8.13
2019-02-28T20:37:50.894Z,8.07
2019-02-28T20:40:22.037Z,9.20
2019-02-28T20:42:52.787Z,8.70
2019-02-28T20:45:23.599Z,7.93
2019-02-28T20:47:54.547Z,10.30
2019-02-28T20:50:37.330Z,9.50
2019-02-28T20:53:09.065Z,9.60
2019-02-28T20:55:41.961Z,9.53
2019-02-28T20:58:12.667Z,10.47
2019-02-28T21:00:43.362Z,10.87
2019-02-28T21:03:15.145Z,10.57
2019-02-28T21:05:47.030Z,10.87
2019-02-28T21:08:17.753Z,11.30
2019-02-28T21:10:48.452Z,11.03
2019-02-28T21:13:19.290Z,9.70
2019-02-28T21:15:50.120Z,10.13
2019-02-28T21:18:20.885Z,10.43
2019-02-28T21:20:51.669Z,11.00
2019-02-28T21:23:23.450Z,10.47
2019-02-28T21:25:54.253Z,12.13
2019-02-28T21:28:42.940Z,10.57
2019-02-28T21:31:14.440Z,10.30
2019-02-28T21:33:45.209Z,9.60
2019-02-28T21:36:16.436Z,10.30
2019-02-28T21:38:47.205Z,10.40
2019-02-28T21:41:17.974Z,10.90
2019-02-28T21:43:49.045Z,11.47
2019-02-28T21:46:19.805Z,11.30
2019-02-28T21:48:50.637Z,13.37
2019-02-28T21:51:21.398Z,11.73
2019-02-28T21:53:52.164Z,12.33
2019-02-28T21:56:22.955Z,13.00
2019-02-28T21:58:53.720Z,12.80
2019-02-28T22:01:25.285Z,13.00
2019-02-28T22:03:56.033Z,12.37
2019-02-28T22:06:26.857Z,12.23
2019-02-28T22:08:57.546Z,14.37
2019-02-28T22:11:28.233Z,13.47
2019-02-28T22:13:58.934Z,13.40
2019-02-28T22:16:29.629Z,13.63
2019-02-28T22:19:00.418Z,12.73
2019-02-28T22:21:31.189Z,11.97
2019-02-28T22:24:01.912Z,14.07
2019-02-28T22:26:34.109Z,14.23
2019-02-28T22:29:04.965Z,13.73
2019-02-28T22:31:54.709Z,12.33
2019-02-28T22:34:47.353Z,12.60
2019-02-28T22:37:18.068Z,14.20
2019-02-28T22:39:48.760Z,14.27
2019-02-28T22:42:22.448Z,13.57
2019-02-28T22:44:51.853Z,12.57
2019-02-28T22:47:22.549Z,16.33
2019-02-28T22:49:53.242Z,16.57
2019-02-28T22:52:24.889Z,15.00
2019-02-28T22:54:55.695Z,17.90
2019-02-28T22:57:26.373Z,16.27
2019-02-28T22:59:57.068Z,15.63
2019-02-28T23:02:28.958Z,16.47
2019-02-28T23:04:59.721Z,14.53
2019-02-28T23:07:32.457Z,16.23
2019-02-28T23:10:03.277Z,16.30
2019-02-28T23:12:34.070Z,17.00
2019-02-28T23:15:04.957Z,17.60
2019-02-28T23:17:36.285Z,15.03
2019-02-28T23:20:08.283Z,17.77
2019-02-28T23:22:39.010Z,16.17
2019-02-28T23:25:09.723Z,16.37
2019-02-28T23:27:40.488Z,16.87
2019-02-28T23:30:43.265Z,17.53
2019-02-28T23:33:17.696Z,13.70
2019-02-28T23:35:49.643Z,14.57
2019-02-28T23:38:20.344Z,17.03
2019-02-28T23:40:51.110Z,15.60
2019-02-28T23:43:21.804Z,17.03
2019-02-28T23:45:52.525Z,15.57
2019-02-28T23:48:23.211Z,15.47
2019-02-28T23:50:53.917Z,15.73
2019-02-28T23:53:24.685Z,14.57
2019-02-28T23:55:55.396Z,17.70
2019-02-28T23:58:26.546Z,16.33
